sensor_id;sensor_type;location;lat;lon;timestamp;P1;durP1;ratioP1;P2;durP2;ratioP2
86422;SDS011;77085;43.220;27.952;2024-03-07T14:05:57;14;;;14;;
86422;SDS011;77085;43.220;27.952;2024-03-07T14:19:44;13;;;13;;
86422;SDS011;77085;43.220;27.952;2024-03-07T14:31:01;13;;;13;;
86422;SDS011;77085;43.220;27.952;2024-03-07T14:31:15;13;;;13;;
86422;SDS011;77085;43.220;27.952;2024-03-07T14:31:30;12;;;12;;
86422;SDS011;77085;43.220;27.952;2024-03-07T14:31:45;13;;;13;;
86422;SDS011;77085;43.220;27.952;2024-03-07T14:32:00;13;;;13;;
86422;SDS011;77085;43.220;27.952;2024-03-07T14:32:26;13;;;13;;
86422;SDS011;77085;43.220;27.952;2024-03-07T14:32:40;13;;;13;;
86422;SDS011;77085;43.220;27.952;2024-03-07T14:33:00;13;;;13;;
86422;SDS011;77085;43.220;27.952;2024-03-07T14:33:15;13;;;13;;
86422;SDS011;77085;43.220;27.952;2024-03-07T14:33:48;12;;;12;;
86422;SDS011;77085;43.220;27.952;2024-03-07T14:34:08;14;;;14;;
86422;SDS011;77085;43.220;27.952;2024-03-07T14:35:18;14;;;14;;
86422;SDS011;77085;43.220;27.952;2024-03-07T14:38:02;11;;;11;;
86422;SDS011;77085;43.220;27.952;2024-03-07T14:38:28;14;;;14;;
86422;SDS011;77085;43.220;27.952;2024-03-07T14:38:51;13;;;13;;
86422;SDS011;77085;43.220;27.952;2024-03-07T14:39:11;13;;;13;;
86422;SDS011;77085;43.220;27.952;2024-03-07T14:39:31;13;;;13;;
86422;SDS011;77085;43.220;27.952;2024-03-07T14:39:52;13;;;13;;
86422;SDS011;77085;43.220;27.952;2024-03-07T14:40:15;13;;;13;;
86422;SDS011;77085;43.220;27.952;2024-03-07T14:40:34;14;;;14;;
86422;SDS011;77085;43.220;27.952;2024-03-07T14:40:54;14;;;14;;
86422;SDS011;77085;43.220;27.952;2024-03-07T14:41:15;14;;;14;;
86422;SDS011;77085;43.220;27.952;2024-03-07T14:42:05;14;;;14;;
86422;SDS011;77085;43.220;27.952;2024-03-07T14:42:25;11;;;11;;
86422;SDS011;77085;43.220;27.952;2024-03-07T14:42:48;11;;;11;;
86422;SDS011;77085;43.220;27.952;2024-03-07T14:43:08;12;;;12;;
86422;SDS011;77085;43.220;27.952;2024-03-07T14:43:28;12;;;12;;
86422;SDS011;77085;43.220;27.952;2024-03-07T14:43:48;12;;;12;;
86422;SDS011;77085;43.220;27.952;2024-03-07T14:44:06;12;;;12;;
86422;SDS011;77085;43.220;27.952;2024-03-07T14:44:26;12;;;12;;
86422;SDS011;77085;43.220;27.952;2024-03-07T14:44:46;11;;;11;;
86422;SDS011;77085;43.220;27.952;2024-03-07T14:45:06;12;;;12;;
86422;SDS011;77085;43.220;27.952;2024-03-07T14:45:30;13;;;13;;
86422;SDS011;77085;43.220;27.952;2024-03-07T14:45:51;10;;;10;;
86422;SDS011;77085;43.220;27.952;2024-03-07T14:46:13;12;;;12;;
86422;SDS011;77085;43.220;27.952;2024-03-07T14:46:33;11;;;11;;
86422;SDS011;77085;43.220;27.952;2024-03-07T14:46:56;12;;;12;;
86422;SDS011;77085;43.220;27.952;2024-03-07T14:47:19;11;;;11;;
86422;SDS011;77085;43.220;27.952;2024-03-07T14:47:38;10;;;10;;
86422;SDS011;77085;43.220;27.952;2024-03-07T14:47:57;10;;;10;;
86422;SDS011;77085;43.220;27.952;2024-03-07T14:48:19;10;;;10;;
86422;SDS011;77085;43.220;27.952;2024-03-07T14:48:39;9;;;9;;
86422;SDS011;77085;43.220;27.952;2024-03-07T14:48:58;10;;;10;;
86422;SDS011;77085;43.220;27.952;2024-03-07T14:49:19;10;;;10;;
86422;SDS011;77085;43.220;27.952;2024-03-07T14:49:39;9;;;9;;
86422;SDS011;77085;43.220;27.952;2024-03-07T14:49:58;10;;;10;;
86422;SDS011;77085;43.220;27.952;2024-03-07T14:50:18;10;;;10;;
86422;SDS011;77085;43.220;27.952;2024-03-07T14:50:40;10;;;10;;
86422;SDS011;77085;43.220;27.952;2024-03-07T14:50:59;11;;;11;;
86422;SDS011;77085;43.220;27.952;2024-03-07T14:51:19;10;;;10;;
86422;SDS011;77085;43.220;27.952;2024-03-07T14:51:38;10;;;10;;
86422;SDS011;77085;43.220;27.952;2024-03-07T14:51:57;11;;;11;;
86422;SDS011;77085;43.220;27.952;2024-03-07T14:52:16;10;;;10;;
86422;SDS011;77085;43.220;27.952;2024-03-07T14:52:36;10;;;10;;
86422;SDS011;77085;43.220;27.952;2024-03-07T14:52:55;10;;;10;;
86422;SDS011;77085;43.220;27.952;2024-03-07T14:53:15;11;;;11;;
86422;SDS011;77085;43.220;27.952;2024-03-07T14:53:34;11;;;11;;
86422;SDS011;77085;43.220;27.952;2024-03-07T14:53:54;11;;;11;;
86422;SDS011;77085;43.220;27.952;2024-03-07T14:54:13;12;;;12;;
86422;SDS011;77085;43.220;27.952;2024-03-07T14:54:32;12;;;12;;
86422;SDS011;77085;43.220;27.952;2024-03-07T14:54:51;11;;;11;;
86422;SDS011;77085;43.220;27.952;2024-03-07T14:55:11;11;;;11;;
86422;SDS011;77085;43.220;27.952;2024-03-07T14:55:30;10;;;10;;
86422;SDS011;77085;43.220;27.952;2024-03-07T14:55:49;10;;;10;;
86422;SDS011;77085;43.220;27.952;2024-03-07T14:56:09;9;;;9;;
86422;SDS011;77085;43.220;27.952;2024-03-07T14:56:28;10;;;10;;
86422;SDS011;77085;43.220;27.952;2024-03-07T14:56:47;10;;;10;;
86422;SDS011;77085;43.220;27.952;2024-03-07T14:57:07;10;;;10;;
86422;SDS011;77085;43.220;27.952;2024-03-07T14:57:26;10;;;10;;
86422;SDS011;77085;43.220;27.952;2024-03-07T14:57:46;11;;;11;;
86422;SDS011;77085;43.220;27.952;2024-03-07T14:58:05;11;;;11;;
86422;SDS011;77085;43.220;27.952;2024-03-07T14:58:25;13;;;13;;
86422;SDS011;77085;43.220;27.952;2024-03-07T14:58:44;16;;;16;;
86422;SDS011;77085;43.220;27.952;2024-03-07T14:59:03;19;;;19;;
86422;SDS011;77085;43.220;27.952;2024-03-07T14:59:22;19;;;19;;
86422;SDS011;77085;43.220;27.952;2024-03-07T14:59:41;22;;;22;;
86422;SDS011;77085;43.220;27.952;2024-03-07T15:00:01;23;;;23;;
86422;SDS011;77085;43.220;27.952;2024-03-07T15:00:20;22;;;22;;
86422;SDS011;77085;43.220;27.952;2024-03-07T15:00:40;22;;;22;;
86422;SDS011;77085;43.220;27.952;2024-03-07T15:00:59;21;;;21;;
86422;SDS011;77085;43.220;27.952;2024-03-07T15:01:19;22;;;22;;
86422;SDS011;77085;43.220;27.952;2024-03-07T15:01:38;22;;;22;;
86422;SDS011;77085;43.220;27.952;2024-03-07T15:01:58;20;;;20;;
86422;SDS011;77085;43.220;27.952;2024-03-07T15:02:17;23;;;23;;
86422;SDS011;77085;43.220;27.952;2024-03-07T15:02:37;28;;;28;;
86422;SDS011;77085;43.220;27.952;2024-03-07T15:02:56;28;;;28;;
86422;SDS011;77085;43.220;27.952;2024-03-07T15:03:16;27;;;27;;
86422;SDS011;77085;43.220;27.952;2024-03-07T15:03:36;29;;;29;;
86422;SDS011;77085;43.220;27.952;2024-03-07T15:03:56;31;;;31;;
86422;SDS011;77085;43.220;27.952;2024-03-07T15:04:16;30;;;30;;
86422;SDS011;77085;43.220;27.952;2024-03-07T15:04:35;31;;;31;;
86422;SDS011;77085;43.220;27.952;2024-03-07T15:04:55;31;;;31;;
86422;SDS011;77085;43.220;27.952;2024-03-07T15:05:15;32;;;32;;
86422;SDS011;77085;43.220;27.952;2024-03-07T15:05:34;34;;;34;;
86422;SDS011;77085;43.220;27.952;2024-03-07T15:05:53;30;;;30;;
86422;SDS011;77085;43.220;27.952;2024-03-07T15:06:13;38;;;38;;
86422;SDS011;77085;43.220;27.952;2024-03-07T15:06:33;47;;;47;;
86422;SDS011;77085;43.220;27.952;2024-03-07T15:06:52;47;;;47;;
86422;SDS011;77085;43.220;27.952;2024-03-07T15:07:11;56;;;56;;
86422;SDS011;77085;43.220;27.952;2024-03-07T15:07:30;59;;;59;;
86422;SDS011;77085;43.220;27.952;2024-03-07T15:07:50;53;;;53;;
86422;SDS011;77085;43.220;27.952;2024-03-07T15:08:10;50;;;50;;
86422;SDS011;77085;43.220;27.952;2024-03-07T15:08:29;52;;;52;;
86422;SDS011;77085;43.220;27.952;2024-03-07T15:08:49;54;;;54;;
86422;SDS011;77085;43.220;27.952;2024-03-07T15:09:08;48;;;48;;
86422;SDS011;77085;43.220;27.952;2024-03-07T15:09:27;42;;;42;;
86422;SDS011;77085;43.220;27.952;2024-03-07T15:09:46;42;;;42;;
86422;SDS011;77085;43.220;27.952;2024-03-07T15:10:48;35;;;35;;
86422;SDS011;77085;43.220;27.952;2024-03-07T15:11:19;39;;;39;;
86422;SDS011;77085;43.220;27.952;2024-03-07T15:11:40;39;;;39;;
86422;SDS011;77085;43.220;27.952;2024-03-07T15:11:59;40;;;40;;
86422;SDS011;77085;43.220;27.952;2024-03-07T15:12:18;38;;;38;;
86422;SDS011;77085;43.220;27.952;2024-03-07T15:12:37;39;;;39;;
86422;SDS011;77085;43.220;27.952;2024-03-07T15:12:56;39;;;39;;
86422;SDS011;77085;43.220;27.952;2024-03-07T15:13:15;38;;;38;;
86422;SDS011;77085;43.220;27.952;2024-03-07T15:13:34;40;;;40;;
86422;SDS011;77085;43.220;27.952;2024-03-07T15:13:53;41;;;41;;
86422;SDS011;77085;43.220;27.952;2024-03-07T15:14:12;40;;;40;;
86422;SDS011;77085;43.220;27.952;2024-03-07T15:14:31;41;;;41;;
86422;SDS011;77085;43.220;27.952;2024-03-07T15:14:51;43;;;43;;
86422;SDS011;77085;43.220;27.952;2024-03-07T15:15:10;43;;;43;;
86422;SDS011;77085;43.220;27.952;2024-03-07T15:15:29;40;;;40;;
86422;SDS011;77085;43.220;27.952;2024-03-07T15:15:48;40;;;40;;
86422;SDS011;77085;43.220;27.952;2024-03-07T15:16:07;41;;;41;;
86422;SDS011;77085;43.220;27.952;2024-03-07T15:16:27;41;;;41;;
86422;SDS011;77085;43.220;27.952;2024-03-07T15:16:46;41;;;41;;
86422;SDS011;77085;43.220;27.952;2024-03-07T15:17:06;42;;;42;;
86422;SDS011;77085;43.220;27.952;2024-03-07T15:17:25;41;;;41;;
86422;SDS011;77085;43.220;27.952;2024-03-07T15:17:47;40;;;40;;
86422;SDS011;77085;43.220;27.952;2024-03-07T15:18:07;37;;;37;;
86422;SDS011;77085;43.220;27.952;2024-03-07T15:18:26;37;;;37;;
86422;SDS011;77085;43.220;27.952;2024-03-07T15:18:45;37;;;37;;
86422;SDS011;77085;43.220;27.952;2024-03-07T15:19:04;38;;;38;;
86422;SDS011;77085;43.220;27.952;2024-03-07T15:19:23;39;;;39;;
86422;SDS011;77085;43.220;27.952;2024-03-07T15:19:42;39;;;39;;
86422;SDS011;77085;43.220;27.952;2024-03-07T15:20:02;38;;;38;;
86422;SDS011;77085;43.220;27.952;2024-03-07T15:20:21;36;;;36;;
86422;SDS011;77085;43.220;27.952;2024-03-07T15:20:40;39;;;39;;
86422;SDS011;77085;43.220;27.952;2024-03-07T15:20:59;39;;;39;;
86422;SDS011;77085;43.220;27.952;2024-03-07T15:21:21;40;;;40;;
86422;SDS011;77085;43.220;27.952;2024-03-07T15:21:40;42;;;42;;
86422;SDS011;77085;43.220;27.952;2024-03-07T15:21:59;39;;;39;;
86422;SDS011;77085;43.220;27.952;2024-03-07T15:22:18;38;;;38;;
86422;SDS011;77085;43.220;27.952;2024-03-07T15:22:37;40;;;40;;
86422;SDS011;77085;43.220;27.952;2024-03-07T15:22:59;41;;;41;;
86422;SDS011;77085;43.220;27.952;2024-03-07T15:23:19;42;;;42;;
86422;SDS011;77085;43.220;27.952;2024-03-07T15:23:38;42;;;42;;
86422;SDS011;77085;43.220;27.952;2024-03-07T15:23:58;38;;;38;;
86422;SDS011;77085;43.220;27.952;2024-03-07T15:24:17;36;;;36;;
86422;SDS011;77085;43.220;27.952;2024-03-07T15:24:36;35;;;35;;
86422;SDS011;77085;43.220;27.952;2024-03-07T15:24:56;37;;;37;;
86422;SDS011;77085;43.220;27.952;2024-03-07T15:25:16;36;;;36;;
86422;SDS011;77085;43.220;27.952;2024-03-07T15:25:35;35;;;35;;
86422;SDS011;77085;43.220;27.952;2024-03-07T15:25:54;35;;;35;;
86422;SDS011;77085;43.220;27.952;2024-03-07T15:26:13;33;;;33;;
86422;SDS011;77085;43.220;27.952;2024-03-07T15:26:32;34;;;34;;
86422;SDS011;77085;43.220;27.952;2024-03-07T15:26:51;36;;;36;;
86422;SDS011;77085;43.220;27.952;2024-03-07T15:27:10;35;;;35;;
86422;SDS011;77085;43.220;27.952;2024-03-07T15:27:29;36;;;36;;
86422;SDS011;77085;43.220;27.952;2024-03-07T15:27:50;36;;;36;;
86422;SDS011;77085;43.220;27.952;2024-03-07T15:28:10;34;;;34;;
86422;SDS011;77085;43.220;27.952;2024-03-07T15:28:29;34;;;34;;
86422;SDS011;77085;43.220;27.952;2024-03-07T15:28:48;34;;;34;;
86422;SDS011;77085;43.220;27.952;2024-03-07T15:29:07;41;;;41;;
86422;SDS011;77085;43.220;27.952;2024-03-07T15:29:26;36;;;36;;
86422;SDS011;77085;43.220;27.952;2024-03-07T15:29:45;36;;;36;;
86422;SDS011;77085;43.220;27.952;2024-03-07T15:30:05;35;;;34;;
86422;SDS011;77085;43.220;27.952;2024-03-07T15:30:25;34;;;34;;
86422;SDS011;77085;43.220;27.952;2024-03-07T15:30:45;35;;;35;;
86422;SDS011;77085;43.220;27.952;2024-03-07T15:31:04;34;;;34;;
86422;SDS011;77085;43.220;27.952;2024-03-07T15:31:24;36;;;36;;
86422;SDS011;77085;43.220;27.952;2024-03-07T15:31:43;39;;;39;;
86422;SDS011;77085;43.220;27.952;2024-03-07T15:32:02;38;;;38;;
86422;SDS011;77085;43.220;27.952;2024-03-07T15:32:22;35;;;35;;
86422;SDS011;77085;43.220;27.952;2024-03-07T15:32:41;32;;;32;;
86422;SDS011;77085;43.220;27.952;2024-03-07T15:33:01;32;;;32;;
86422;SDS011;77085;43.220;27.952;2024-03-07T15:33:20;29;;;29;;
86422;SDS011;77085;43.220;27.952;2024-03-07T15:33:39;31;;;31;;
86422;SDS011;77085;43.220;27.952;2024-03-07T15:33:58;32;;;32;;
86422;SDS011;77085;43.220;27.952;2024-03-07T15:34:17;32;;;32;;
86422;SDS011;77085;43.220;27.952;2024-03-07T15:34:36;30;;;30;;
86422;SDS011;77085;43.220;27.952;2024-03-07T15:34:55;31;;;31;;
86422;SDS011;77085;43.220;27.952;2024-03-07T15:35:15;30;;;30;;
86422;SDS011;77085;43.220;27.952;2024-03-07T15:35:34;31;;;31;;
86422;SDS011;77085;43.220;27.952;2024-03-07T15:35:53;28;;;28;;
86422;SDS011;77085;43.220;27.952;2024-03-07T15:36:13;30;;;30;;
86422;SDS011;77085;43.220;27.952;2024-03-07T15:36:32;28;;;28;;
86422;SDS011;77085;43.220;27.952;2024-03-07T15:37:00;29;;;29;;
86422;SDS011;77085;43.220;27.952;2024-03-07T15:37:19;28;;;28;;
86422;SDS011;77085;43.220;27.952;2024-03-07T15:37:39;29;;;29;;
86422;SDS011;77085;43.220;27.952;2024-03-07T15:37:59;28;;;28;;
86422;SDS011;77085;43.220;27.952;2024-03-07T15:38:18;26;;;26;;
86422;SDS011;77085;43.220;27.952;2024-03-07T15:38:37;29;;;29;;
86422;SDS011;77085;43.220;27.952;2024-03-07T15:38:56;28;;;28;;
86422;SDS011;77085;43.220;27.952;2024-03-07T15:39:15;27;;;27;;
86422;SDS011;77085;43.220;27.952;2024-03-07T15:39:34;28;;;28;;
86422;SDS011;77085;43.220;27.952;2024-03-07T15:39:53;27;;;27;;
86422;SDS011;77085;43.220;27.952;2024-03-07T15:40:12;26;;;26;;
86422;SDS011;77085;43.220;27.952;2024-03-07T15:40:33;28;;;28;;
86422;SDS011;77085;43.220;27.952;2024-03-07T15:41:01;26;;;26;;
86422;SDS011;77085;43.220;27.952;2024-03-07T15:41:20;28;;;28;;
86422;SDS011;77085;43.220;27.952;2024-03-07T15:41:39;25;;;25;;
86422;SDS011;77085;43.220;27.952;2024-03-07T15:41:58;26;;;26;;
86422;SDS011;77085;43.220;27.952;2024-03-07T15:42:17;27;;;27;;
86422;SDS011;77085;43.220;27.952;2024-03-07T15:42:37;27;;;27;;
86422;SDS011;77085;43.220;27.952;2024-03-07T15:42:57;27;;;27;;
86422;SDS011;77085;43.220;27.952;2024-03-07T15:43:16;26;;;26;;
86422;SDS011;77085;43.220;27.952;2024-03-07T15:43:34;25;;;25;;
86422;SDS011;77085;43.220;27.952;2024-03-07T15:43:54;25;;;25;;
86422;SDS011;77085;43.220;27.952;2024-03-07T15:44:12;25;;;25;;
86422;SDS011;77085;43.220;27.952;2024-03-07T15:44:31;26;;;26;;
86422;SDS011;77085;43.220;27.952;2024-03-07T15:44:50;26;;;26;;
86422;SDS011;77085;43.220;27.952;2024-03-07T15:45:21;26;;;26;;
86422;SDS011;77085;43.220;27.952;2024-03-07T15:45:40;25;;;25;;
86422;SDS011;77085;43.220;27.952;2024-03-07T15:45:59;25;;;25;;
86422;SDS011;77085;43.220;27.952;2024-03-07T15:46:18;26;;;26;;
86422;SDS011;77085;43.220;27.952;2024-03-07T15:46:37;26;;;26;;
86422;SDS011;77085;43.220;27.952;2024-03-07T15:46:56;26;;;26;;
86422;SDS011;77085;43.220;27.952;2024-03-07T15:47:16;25;;;25;;
86422;SDS011;77085;43.220;27.952;2024-03-07T15:47:37;25;;;25;;
86422;SDS011;77085;43.220;27.952;2024-03-07T15:47:58;24;;;24;;
86422;SDS011;77085;43.220;27.952;2024-03-07T15:48:17;24;;;24;;
86422;SDS011;77085;43.220;27.952;2024-03-07T15:48:38;24;;;24;;
86422;SDS011;77085;43.220;27.952;2024-03-07T15:48:57;23;;;23;;
86422;SDS011;77085;43.220;27.952;2024-03-07T15:49:17;23;;;23;;
86422;SDS011;77085;43.220;27.952;2024-03-07T15:49:39;24;;;24;;
86422;SDS011;77085;43.220;27.952;2024-03-07T15:49:58;26;;;26;;
86422;SDS011;77085;43.220;27.952;2024-03-07T15:50:18;24;;;24;;
86422;SDS011;77085;43.220;27.952;2024-03-07T15:50:38;24;;;24;;
86422;SDS011;77085;43.220;27.952;2024-03-07T15:51:02;22;;;22;;
86422;SDS011;77085;43.220;27.952;2024-03-07T15:51:23;23;;;23;;
86422;SDS011;77085;43.220;27.952;2024-03-07T17:04:48;14;;;12;;
86422;SDS011;77085;43.220;27.952;2024-03-07T17:05:22;15;;;15;;
86422;SDS011;77085;43.220;27.952;2024-03-07T17:05:42;15;;;15;;
86422;SDS011;77085;43.220;27.952;2024-03-07T17:06:01;14;;;14;;
86422;SDS011;77085;43.220;27.952;2024-03-07T17:06:21;14;;;14;;
86422;SDS011;77085;43.220;27.952;2024-03-07T17:06:41;14;;;14;;
86422;SDS011;77085;43.220;27.952;2024-03-07T17:07:00;14;;;14;;
86422;SDS011;77085;43.220;27.952;2024-03-07T17:07:19;14;;;14;;
86422;SDS011;77085;43.220;27.952;2024-03-07T17:09:16;28;;;28;;
86422;SDS011;77085;43.220;27.952;2024-03-07T17:09:35;30;;;30;;
86422;SDS011;77085;43.220;27.952;2024-03-07T17:09:55;30;;;30;;
86422;SDS011;77085;43.220;27.952;2024-03-07T17:10:14;31;;;31;;
86422;SDS011;77085;43.220;27.952;2024-03-07T17:10:36;28;;;28;;
86422;SDS011;77085;43.220;27.952;2024-03-07T17:10:56;29;;;29;;
86422;SDS011;77085;43.220;27.952;2024-03-07T17:11:16;30;;;30;;
86422;SDS011;77085;43.220;27.952;2024-03-07T17:11:35;29;;;29;;
86422;SDS011;77085;43.220;27.952;2024-03-07T17:11:55;29;;;29;;
86422;SDS011;77085;43.220;27.952;2024-03-07T17:12:14;30;;;30;;
86422;SDS011;77085;43.220;27.952;2024-03-07T17:12:34;32;;;32;;
86422;SDS011;77085;43.220;27.952;2024-03-07T17:12:53;30;;;30;;
86422;SDS011;77085;43.220;27.952;2024-03-07T17:13:13;31;;;31;;
86422;SDS011;77085;43.220;27.952;2024-03-07T17:13:32;32;;;32;;
86422;SDS011;77085;43.220;27.952;2024-03-07T17:13:52;30;;;30;;
86422;SDS011;77085;43.220;27.952;2024-03-07T17:14:11;30;;;30;;
86422;SDS011;77085;43.220;27.952;2024-03-07T17:14:33;29;;;29;;
86422;SDS011;77085;43.220;27.952;2024-03-07T17:14:52;31;;;31;;
86422;SDS011;77085;43.220;27.952;2024-03-07T17:15:18;31;;;31;;
86422;SDS011;77085;43.220;27.952;2024-03-07T17:15:38;32;;;32;;
86422;SDS011;77085;43.220;27.952;2024-03-07T17:15:57;31;;;31;;
86422;SDS011;77085;43.220;27.952;2024-03-07T17:16:17;33;;;33;;
86422;SDS011;77085;43.220;27.952;2024-03-07T17:16:37;31;;;31;;
86422;SDS011;77085;43.220;27.952;2024-03-07T17:16:56;32;;;32;;
86422;SDS011;77085;43.220;27.952;2024-03-07T17:17:15;32;;;32;;
86422;SDS011;77085;43.220;27.952;2024-03-07T17:17:36;31;;;31;;
86422;SDS011;77085;43.220;27.952;2024-03-07T17:17:58;31;;;31;;
86422;SDS011;77085;43.220;27.952;2024-03-07T17:18:17;32;;;32;;
86422;SDS011;77085;43.220;27.952;2024-03-07T17:18:37;33;;;33;;
86422;SDS011;77085;43.220;27.952;2024-03-07T17:18:56;33;;;33;;
86422;SDS011;77085;43.220;27.952;2024-03-07T17:19:16;32;;;32;;
86422;SDS011;77085;43.220;27.952;2024-03-07T17:19:35;33;;;33;;
86422;SDS011;77085;43.220;27.952;2024-03-07T17:19:57;33;;;33;;
86422;SDS011;77085;43.220;27.952;2024-03-07T17:20:21;33;;;33;;
86422;SDS011;77085;43.220;27.952;2024-03-07T17:20:43;33;;;33;;
86422;SDS011;77085;43.220;27.952;2024-03-07T17:21:04;33;;;33;;
86422;SDS011;77085;43.220;27.952;2024-03-07T17:21:25;32;;;32;;
86422;SDS011;77085;43.220;27.952;2024-03-07T17:21:44;32;;;32;;
86422;SDS011;77085;43.220;27.952;2024-03-07T17:22:04;33;;;33;;
86422;SDS011;77085;43.220;27.952;2024-03-07T17:22:23;32;;;32;;
86422;SDS011;77085;43.220;27.952;2024-03-07T17:22:44;34;;;34;;
86422;SDS011;77085;43.220;27.952;2024-03-07T17:23:06;34;;;34;;
86422;SDS011;77085;43.220;27.952;2024-03-07T17:23:27;34;;;34;;
86422;SDS011;77085;43.220;27.952;2024-03-07T17:23:47;33;;;33;;
86422;SDS011;77085;43.220;27.952;2024-03-07T17:24:07;34;;;34;;
86422;SDS011;77085;43.220;27.952;2024-03-07T17:24:27;35;;;35;;
86422;SDS011;77085;43.220;27.952;2024-03-07T17:24:46;35;;;35;;
86422;SDS011;77085;43.220;27.952;2024-03-07T17:25:09;34;;;34;;
86422;SDS011;77085;43.220;27.952;2024-03-07T17:25:28;35;;;35;;
86422;SDS011;77085;43.220;27.952;2024-03-07T17:25:48;34;;;34;;
86422;SDS011;77085;43.220;27.952;2024-03-07T17:26:08;34;;;34;;
86422;SDS011;77085;43.220;27.952;2024-03-07T17:26:28;35;;;35;;
86422;SDS011;77085;43.220;27.952;2024-03-07T17:26:48;35;;;35;;
86422;SDS011;77085;43.220;27.952;2024-03-07T17:27:07;34;;;34;;
86422;SDS011;77085;43.220;27.952;2024-03-07T17:27:26;33;;;33;;
86422;SDS011;77085;43.220;27.952;2024-03-07T17:27:48;33;;;33;;
86422;SDS011;77085;43.220;27.952;2024-03-07T17:28:08;33;;;33;;
86422;SDS011;77085;43.220;27.952;2024-03-07T17:28:27;32;;;32;;
86422;SDS011;77085;43.220;27.952;2024-03-07T17:28:47;32;;;32;;
86422;SDS011;77085;43.220;27.952;2024-03-07T17:29:06;34;;;34;;
86422;SDS011;77085;43.220;27.952;2024-03-07T17:29:26;34;;;34;;
86422;SDS011;77085;43.220;27.952;2024-03-07T17:29:46;35;;;35;;
86422;SDS011;77085;43.220;27.952;2024-03-07T17:30:06;38;;;38;;
86422;SDS011;77085;43.220;27.952;2024-03-07T17:30:27;35;;;35;;
86422;SDS011;77085;43.220;27.952;2024-03-07T17:30:46;34;;;34;;
86422;SDS011;77085;43.220;27.952;2024-03-07T17:31:06;34;;;34;;
86422;SDS011;77085;43.220;27.952;2024-03-07T17:31:26;34;;;34;;
86422;SDS011;77085;43.220;27.952;2024-03-07T17:31:46;34;;;34;;
86422;SDS011;77085;43.220;27.952;2024-03-07T17:32:06;35;;;35;;
86422;SDS011;77085;43.220;27.952;2024-03-07T17:32:25;36;;;36;;
86422;SDS011;77085;43.220;27.952;2024-03-07T17:32:45;35;;;35;;
86422;SDS011;77085;43.220;27.952;2024-03-07T17:33:06;35;;;35;;
86422;SDS011;77085;43.220;27.952;2024-03-07T17:33:25;37;;;37;;
86422;SDS011;77085;43.220;27.952;2024-03-07T17:33:44;36;;;36;;
86422;SDS011;77085;43.220;27.952;2024-03-07T17:34:04;36;;;36;;
86422;SDS011;77085;43.220;27.952;2024-03-07T17:34:23;34;;;34;;
86422;SDS011;77085;43.220;27.952;2024-03-07T17:34:43;36;;;36;;
86422;SDS011;77085;43.220;27.952;2024-03-07T17:35:03;38;;;38;;
86422;SDS011;77085;43.220;27.952;2024-03-07T17:35:23;35;;;35;;
86422;SDS011;77085;43.220;27.952;2024-03-07T17:35:43;35;;;35;;
86422;SDS011;77085;43.220;27.952;2024-03-07T17:36:02;34;;;34;;
86422;SDS011;77085;43.220;27.952;2024-03-07T17:36:22;35;;;35;;
86422;SDS011;77085;43.220;27.952;2024-03-07T17:36:41;34;;;34;;
86422;SDS011;77085;43.220;27.952;2024-03-07T17:37:01;35;;;35;;
86422;SDS011;77085;43.220;27.952;2024-03-07T17:37:20;35;;;35;;
86422;SDS011;77085;43.220;27.952;2024-03-07T17:37:41;36;;;36;;
86422;SDS011;77085;43.220;27.952;2024-03-07T17:38:01;36;;;36;;
86422;SDS011;77085;43.220;27.952;2024-03-07T17:38:20;37;;;37;;
86422;SDS011;77085;43.220;27.952;2024-03-07T17:38:40;37;;;37;;
86422;SDS011;77085;43.220;27.952;2024-03-07T17:39:00;37;;;37;;
86422;SDS011;77085;43.220;27.952;2024-03-07T17:39:20;38;;;38;;
86422;SDS011;77085;43.220;27.952;2024-03-07T17:39:40;38;;;38;;
86422;SDS011;77085;43.220;27.952;2024-03-07T17:40:00;38;;;38;;
86422;SDS011;77085;43.220;27.952;2024-03-07T17:40:20;37;;;37;;
86422;SDS011;77085;43.220;27.952;2024-03-07T17:40:41;38;;;38;;
86422;SDS011;77085;43.220;27.952;2024-03-07T17:41:00;36;;;36;;
86422;SDS011;77085;43.220;27.952;2024-03-07T17:41:20;36;;;36;;
86422;SDS011;77085;43.220;27.952;2024-03-07T17:41:42;36;;;36;;
86422;SDS011;77085;43.220;27.952;2024-03-07T17:42:02;38;;;38;;
86422;SDS011;77085;43.220;27.952;2024-03-07T17:42:22;39;;;39;;
86422;SDS011;77085;43.220;27.952;2024-03-07T17:42:45;38;;;38;;
86422;SDS011;77085;43.220;27.952;2024-03-07T17:43:05;38;;;38;;
86422;SDS011;77085;43.220;27.952;2024-03-07T17:43:24;38;;;38;;
86422;SDS011;77085;43.220;27.952;2024-03-07T17:43:44;38;;;38;;
86422;SDS011;77085;43.220;27.952;2024-03-07T17:44:03;38;;;38;;
86422;SDS011;77085;43.220;27.952;2024-03-07T17:44:23;37;;;37;;
86422;SDS011;77085;43.220;27.952;2024-03-07T17:44:43;38;;;38;;
86422;SDS011;77085;43.220;27.952;2024-03-07T17:45:03;38;;;38;;
86422;SDS011;77085;43.220;27.952;2024-03-07T17:45:24;38;;;38;;
86422;SDS011;77085;43.220;27.952;2024-03-07T17:45:44;38;;;38;;
86422;SDS011;77085;43.220;27.952;2024-03-07T17:46:04;39;;;39;;
86422;SDS011;77085;43.220;27.952;2024-03-07T17:46:23;36;;;36;;
86422;SDS011;77085;43.220;27.952;2024-03-07T17:46:44;39;;;39;;
86422;SDS011;77085;43.220;27.952;2024-03-07T17:47:03;39;;;39;;
86422;SDS011;77085;43.220;27.952;2024-03-07T17:47:23;38;;;38;;
86422;SDS011;77085;43.220;27.952;2024-03-07T17:47:43;39;;;39;;
86422;SDS011;77085;43.220;27.952;2024-03-07T17:48:03;37;;;37;;
86422;SDS011;77085;43.220;27.952;2024-03-07T17:48:22;39;;;39;;
86422;SDS011;77085;43.220;27.952;2024-03-07T17:48:42;39;;;39;;
86422;SDS011;77085;43.220;27.952;2024-03-07T17:49:03;38;;;38;;
86422;SDS011;77085;43.220;27.952;2024-03-07T17:49:23;39;;;39;;
86422;SDS011;77085;43.220;27.952;2024-03-07T17:49:42;38;;;38;;
86422;SDS011;77085;43.220;27.952;2024-03-07T17:50:02;37;;;37;;
86422;SDS011;77085;43.220;27.952;2024-03-07T17:50:24;37;;;37;;
86422;SDS011;77085;43.220;27.952;2024-03-07T17:50:44;38;;;38;;
86422;SDS011;77085;43.220;27.952;2024-03-07T17:51:03;39;;;39;;
86422;SDS011;77085;43.220;27.952;2024-03-07T17:51:23;39;;;39;;
86422;SDS011;77085;43.220;27.952;2024-03-07T17:51:42;38;;;38;;
86422;SDS011;77085;43.220;27.952;2024-03-07T17:52:02;39;;;39;;
86422;SDS011;77085;43.220;27.952;2024-03-07T17:52:22;37;;;37;;
86422;SDS011;77085;43.220;27.952;2024-03-07T17:52:41;37;;;37;;
86422;SDS011;77085;43.220;27.952;2024-03-07T17:53:04;39;;;39;;
86422;SDS011;77085;43.220;27.952;2024-03-07T17:53:23;38;;;38;;
86422;SDS011;77085;43.220;27.952;2024-03-07T17:53:43;40;;;40;;
86422;SDS011;77085;43.220;27.952;2024-03-07T17:54:02;39;;;39;;
86422;SDS011;77085;43.220;27.952;2024-03-07T17:54:21;38;;;38;;
86422;SDS011;77085;43.220;27.952;2024-03-07T17:54:41;38;;;38;;
86422;SDS011;77085;43.220;27.952;2024-03-07T17:55:01;40;;;40;;